Mersa Matruh, Egypt
Current Conditions -  °F | °C
As of 12:00 AM on Thursday 23 Oct 2014 (Local Time) from HEMM Reporting Station
Clear Clear  
Wind Chill: 72°   Ceiling: Unl
Heat Index: 72°   Visibility: 6mi
Dew Point: 48°   Wind: 10mph
Humidity: 43%   Direction: 210°SSW
Pressure: 29.91"   Gusts: NA
Location:  31.32°N, 27.22°E
Report Text: HEMM 222200Z 21009KT CAVOK 22/09 Q1013 NOSIG
Loading
Personal Weather Stations






























Interactive Weather Map New forecast layout! Learn more

10-Day Weather Forecast

Advertisements
Track Severe Weather on mobile